Time;durP1;ratioP1;P1;durP2;ratioP2;P2;SDS_P1;SDS_P2;PMS_P1;PMS_P2;Temp;Humidity;BMP_temperature;BMP_pressure;BME280_temperature;BME280_humidity;BME280_pressure;Samples;Min_cycle;Max_cycle;Signal;HPM_P1;HPM_P2
2022/11/18 00:02:26;;;;;;;;;;;;;;;6.62;100.00;98994.19;5577707;31;34780;-71
2022/11/18 00:05:33;;;;;;;;;;;;;;;6.53;100.00;99002.13;5590861;31;34854;-71
2022/11/18 00:08:39;;;;;;;;;;;;;;;6.48;100.00;99003.69;5590855;31;34680;-71
2022/11/18 00:15:11;;;;;;;;;;;;;;;6.33;100.00;98998.34;5590853;31;34949;-71
2022/11/18 00:18:18;;;;;;;;;;;;;;;6.27;100.00;98987.66;5590882;31;34875;-72
2022/11/18 00:21:24;;;;;;;;;;;;;;;6.31;100.00;98986.31;5577249;31;34820;-71
2022/11/18 00:24:30;;;;;;;;;;;;;;;6.63;100.00;98985.28;5590720;31;34662;-71
2022/11/18 00:27:38;;;;;;;;;;;;;;;6.57;100.00;98991.25;5576466;31;35018;-71
2022/11/18 00:30:47;;;;;;;;;;;;;;;6.41;100.00;98992.19;5576239;31;35582;-71
2022/11/18 00:33:53;;;;;;;;;;;;;;;6.28;100.00;98986.69;5576312;31;34946;-71
2022/11/18 00:37:05;;;;;;;;;;;;;;;6.20;100.00;98984.91;5590688;31;34928;-71
2022/11/18 00:40:11;;;;;;;;;;;;;;;6.15;100.00;98983.81;5590571;31;34771;-71
2022/11/18 00:43:18;;;;;;;;;;;;;;;6.08;100.00;98973.16;5576509;31;34068;-71
2022/11/18 00:46:24;;;;;;;;;;;;;;;6.01;100.00;98967.72;5576890;31;32746;-71
2022/11/18 00:49:31;;;;;;;;;;;;;;;5.94;100.00;98969.44;5590572;31;34790;-71
2022/11/18 00:52:39;;;;;;;;;;;;;;;5.91;100.00;98961.88;5576363;31;34377;-71
2022/11/18 00:55:47;;;;;;;;;;;;;;;5.87;100.00;98951.84;5590821;31;34882;-71
2022/11/18 00:58:56;;;;;;;;;;;;;;;5.81;100.00;98948.06;5577096;31;34337;-71
2022/11/18 01:02:07;;;;;;;;;;;;;;;5.80;100.00;98949.09;5590457;31;34928;-72
2022/11/18 01:05:13;;;;;;;;;;;;;;;5.79;100.00;98954.50;5590315;31;34303;-72
2022/11/18 01:08:21;;;;;;;;;;;;;;;5.80;100.00;98950.88;5590374;31;34787;-71
2022/11/18 01:14:53;;;;;;;;;;;;;;;5.75;100.00;98943.50;5590165;31;34685;-71
2022/11/18 01:17:59;;;;;;;;;;;;;;;5.75;100.00;98946.16;5590393;31;34661;-71
2022/11/18 01:21:06;;;;;;;;;;;;;;;5.80;100.00;98953.53;5576315;31;33288;-71
2022/11/18 01:24:13;;;;;;;;;;;;;;;5.73;100.00;98949.94;5589996;31;34535;-71
2022/11/18 01:27:21;;;;;;;;;;;;;;;5.74;100.00;98948.94;5576090;31;35797;-72
2022/11/18 01:30:28;;;;;;;;;;;;;;;5.69;100.00;98939.75;5590118;31;34273;-71
2022/11/18 01:33:36;;;;;;;;;;;;;;;5.69;100.00;98931.88;5590034;31;34786;-72
2022/11/18 01:36:44;;;;;;;;;;;;;;;5.66;100.00;98932.19;5590223;31;34423;-72
2022/11/18 01:39:52;;;;;;;;;;;;;;;5.68;100.00;98930.22;5576901;31;34106;-71
2022/11/18 01:42:59;;;;;;;;;;;;;;;5.75;100.00;98943.50;5576094;31;34123;-71
2022/11/18 01:46:05;;;;;;;;;;;;;;;5.73;100.00;98957.81;5590008;31;34810;-72
2022/11/18 01:49:13;;;;;;;;;;;;;;;5.67;100.00;98948.78;5590081;31;34473;-72
2022/11/18 01:52:22;;;;;;;;;;;;;;;5.67;100.00;98956.69;5589973;31;34329;-72
2022/11/18 01:55:32;;;;;;;;;;;;;;;5.71;100.00;98951.94;5589561;31;34868;-71
2022/11/18 01:58:42;;;;;;;;;;;;;;;5.68;100.00;98945.19;5575634;31;35544;-72
2022/11/18 02:01:49;;;;;;;;;;;;;;;5.83;100.00;98959.25;5590231;31;34902;-72
2022/11/18 02:05:02;;;;;;;;;;;;;;;5.76;100.00;98958.28;5589824;31;34307;-72
2022/11/18 02:08:09;;;;;;;;;;;;;;;5.75;100.00;98958.47;5575852;31;35347;-72
2022/11/18 02:14:50;;;;;;;;;;;;;;;5.58;100.00;98945.38;5589869;31;34774;-72
2022/11/18 02:18:01;;;;;;;;;;;;;;;5.52;100.00;98948.69;5589816;31;34170;-71
2022/11/18 02:21:25;;;;;;;;;;;;;;;5.54;100.00;98945.91;5589827;31;34891;-72
2022/11/18 02:24:40;;;;;;;;;;;;;;;5.64;100.00;98946.53;5575993;31;34066;-72
2022/11/18 02:28:07;;;;;;;;;;;;;;;5.65;100.00;98940.28;5575377;31;34358;-72
2022/11/18 02:31:18;;;;;;;;;;;;;;;5.68;100.00;98950.44;5589601;31;34812;-73
2022/11/18 02:34:39;;;;;;;;;;;;;;;5.77;100.00;98951.22;5589550;31;34297;-72
2022/11/18 02:37:46;;;;;;;;;;;;;;;5.86;100.00;98937.84;5589547;31;34587;-72
2022/11/18 02:40:57;;;;;;;;;;;;;;;5.97;100.00;98926.97;5589532;31;34217;-72
2022/11/18 02:44:07;;;;;;;;;;;;;;;6.08;100.00;98925.75;5589439;31;34706;-72
2022/11/18 02:47:15;;;;;;;;;;;;;;;6.11;100.00;98913.06;5589404;31;34326;-72
2022/11/18 02:50:24;;;;;;;;;;;;;;;6.22;100.00;98917.09;5589294;31;34818;-72
2022/11/18 02:53:32;;;;;;;;;;;;;;;6.22;100.00;98903.09;5589261;31;34186;-72
2022/11/18 02:56:42;;;;;;;;;;;;;;;6.16;100.00;98898.53;5589206;31;34870;-72
2022/11/18 02:59:52;;;;;;;;;;;;;;;6.32;100.00;98893.97;5589105;31;34638;-72
2022/11/18 03:03:22;;;;;;;;;;;;;;;6.38;100.00;98895.09;5589129;31;34765;-72
2022/11/18 03:06:42;;;;;;;;;;;;;;;6.43;100.00;98890.94;5590397;31;34340;-72
2022/11/18 03:09:51;;;;;;;;;;;;;;;6.40;100.00;98888.63;5591547;31;34761;-72
2022/11/18 03:12:59;;;;;;;;;;;;;;;6.43;100.00;98885.66;5577130;31;34243;-72
2022/11/18 03:16:10;;;;;;;;;;;;;;;6.49;100.00;98887.56;5591742;31;34785;-72
2022/11/18 03:19:17;;;;;;;;;;;;;;;6.48;100.00;98879.87;5591570;31;34176;-72
2022/11/18 03:22:36;;;;;;;;;;;;;;;6.50;100.00;98883.13;5591367;31;34289;-72
2022/11/18 03:25:49;;;;;;;;;;;;;;;6.50;100.00;98886.56;5591654;31;34157;-72
2022/11/18 03:29:03;;;;;;;;;;;;;;;6.57;100.00;98889.31;5591245;31;34900;-72
2022/11/18 03:32:14;;;;;;;;;;;;;;;6.59;100.00;98897.03;5591200;31;34405;-72
2022/11/18 03:35:23;;;;;;;;;;;;;;;6.64;100.00;98892.88;5591505;31;34907;-73
2022/11/18 03:38:33;;;;;;;;;;;;;;;6.67;100.00;98896.97;5591577;31;34146;-72
2022/11/18 03:41:45;;;;;;;;;;;;;;;6.75;100.00;98894.25;5576262;31;33034;-72
2022/11/18 03:45:02;;;;;;;;;;;;;;;6.72;100.00;98897.25;5578424;31;34642;-72
2022/11/18 03:48:12;;;;;;;;;;;;;;;6.78;100.00;98894.72;5591257;31;34879;-72
2022/11/18 03:51:26;;;;;;;;;;;;;;;6.86;100.00;98907.00;5577291;31;34126;-73
2022/11/18 03:54:32;;;;;;;;;;;;;;;6.83;100.00;98913.44;5591180;31;34301;-73
2022/11/18 03:57:43;;;;;;;;;;;;;;;6.87;100.00;98921.84;5591574;31;34640;-73
2022/11/18 04:00:55;;;;;;;;;;;;;;;6.82;100.00;98909.19;5591117;31;34224;-73
2022/11/18 04:04:06;;;;;;;;;;;;;;;6.88;100.00;98916.34;5590930;31;34491;-72
2022/11/18 04:07:20;;;;;;;;;;;;;;;6.64;100.00;98916.59;5591065;31;34171;-72
2022/11/18 04:10:26;;;;;;;;;;;;;;;6.57;100.00;98914.84;5577166;31;35127;-73
2022/11/18 04:13:36;;;;;;;;;;;;;;;6.58;100.00;98909.41;5590872;31;34805;-72
2022/11/18 04:16:43;;;;;;;;;;;;;;;6.73;100.00;98891.78;5576832;31;33452;-73
2022/11/18 04:19:53;;;;;;;;;;;;;;;6.70;100.00;98886.06;5590882;31;34191;-72
2022/11/18 04:23:01;;;;;;;;;;;;;;;6.54;100.00;98873.84;5576940;31;35715;-73
2022/11/18 04:26:12;;;;;;;;;;;;;;;6.53;100.00;98864.34;5590793;31;34223;-72
2022/11/18 04:29:20;;;;;;;;;;;;;;;6.44;100.00;98863.56;5576691;31;32898;-72
2022/11/18 04:32:25;;;;;;;;;;;;;;;6.45;100.00;98856.50;5576843;31;34542;-72
2022/11/18 04:35:32;;;;;;;;;;;;;;;6.46;100.00;98851.06;5576966;31;35056;-73
2022/11/18 04:38:41;;;;;;;;;;;;;;;6.52;100.00;98850.34;5590649;31;34653;-73
2022/11/18 04:41:54;;;;;;;;;;;;;;;6.45;100.00;98840.69;5590770;31;34383;-72
2022/11/18 04:45:00;;;;;;;;;;;;;;;6.41;100.00;98849.94;5590612;31;34729;-72
2022/11/18 04:48:07;;;;;;;;;;;;;;;6.57;100.00;98851.63;5590664;31;34394;-72
2022/11/18 04:51:14;;;;;;;;;;;;;;;6.57;100.00;98860.34;5590850;31;34400;-73
2022/11/18 04:54:25;;;;;;;;;;;;;;;6.62;100.00;98865.06;5590463;31;34059;-73
2022/11/18 04:57:31;;;;;;;;;;;;;;;6.72;100.00;98858.56;5590597;31;34902;-73
2022/11/18 05:00:39;;;;;;;;;;;;;;;6.62;100.00;98860.63;5590498;31;34892;-73
2022/11/18 05:03:47;;;;;;;;;;;;;;;6.61;100.00;98874.78;5590601;31;34238;-73
2022/11/18 05:06:53;;;;;;;;;;;;;;;6.58;100.00;98882.25;5576832;31;35405;-73
2022/11/18 05:10:00;;;;;;;;;;;;;;;6.60;100.00;98882.88;5576335;31;34966;-73
2022/11/18 05:13:07;;;;;;;;;;;;;;;6.72;100.00;98878.81;5590428;31;34167;-73
2022/11/18 05:16:15;;;;;;;;;;;;;;;6.74;100.00;98879.44;5576413;31;34443;-74
2022/11/18 05:19:24;;;;;;;;;;;;;;;6.84;100.00;98857.09;5576612;31;34625;-73
2022/11/18 05:22:32;;;;;;;;;;;;;;;6.75;100.00;98858.19;5590321;31;34881;-74
2022/11/18 05:25:38;;;;;;;;;;;;;;;6.77;100.00;98844.84;5576797;31;34517;-74
2022/11/18 05:28:44;;;;;;;;;;;;;;;6.89;100.00;98853.91;5589290;31;34249;-74
2022/11/18 05:31:54;;;;;;;;;;;;;;;6.77;100.00;98853.56;5590369;31;34688;-73
2022/11/18 05:35:00;;;;;;;;;;;;;;;6.84;100.00;98853.62;5575977;31;34408;-74
2022/11/18 05:38:04;;;;;;;;;;;;;;;6.87;100.00;98855.94;5590113;31;34395;-74
2022/11/18 05:41:07;;;;;;;;;;;;;;;6.90;100.00;98851.09;5590112;31;34335;-73
2022/11/18 05:44:11;;;;;;;;;;;;;;;6.95;100.00;98840.84;5576438;31;34251;-74
2022/11/18 05:47:14;;;;;;;;;;;;;;;6.94;100.00;98847.09;5590269;31;34231;-73
2022/11/18 05:50:17;;;;;;;;;;;;;;;6.91;100.00;98844.84;5590125;31;34234;-73
2022/11/18 05:53:24;;;;;;;;;;;;;;;7.10;100.00;98838.19;5589875;31;34289;-74
2022/11/18 05:56:28;;;;;;;;;;;;;;;6.91;100.00;98852.75;5590212;31;34333;-74
2022/11/18 05:59:34;;;;;;;;;;;;;;;6.89;100.00;98860.00;5576258;31;35116;-73
2022/11/18 06:02:40;;;;;;;;;;;;;;;6.85;100.00;98850.84;5590052;31;34239;-74
2022/11/18 06:05:46;;;;;;;;;;;;;;;6.91;100.00;98836.94;5563617;31;34440;-74
2022/11/18 06:08:56;;;;;;;;;;;;;;;7.01;100.00;98841.94;5590039;31;35016;-74
2022/11/18 06:12:06;;;;;;;;;;;;;;;7.10;100.00;98843.47;5589874;31;34277;-74
2022/11/18 06:15:12;;;;;;;;;;;;;;;7.09;100.00;98856.81;5569274;32;34664;-74
2022/11/18 06:18:26;;;;;;;;;;;;;;;6.93;100.00;98853.38;5570081;32;34366;-74
2022/11/18 06:21:30;;;;;;;;;;;;;;;6.97;100.00;98861.75;5569414;32;34485;-74
2022/11/18 06:24:34;;;;;;;;;;;;;;;6.87;100.00;98863.84;5569876;32;34353;-75
2022/11/18 06:27:38;;;;;;;;;;;;;;;6.90;100.00;98852.91;5569175;32;35294;-74
2022/11/18 06:30:42;;;;;;;;;;;;;;;6.89;100.00;98848.66;5568963;32;34118;-75
2022/11/18 06:33:49;;;;;;;;;;;;;;;6.91;100.00;98844.03;5569267;32;34818;-74
2022/11/18 06:36:56;;;;;;;;;;;;;;;6.90;100.00;98851.09;5570308;32;34137;-73
2022/11/18 06:40:01;;;;;;;;;;;;;;;6.98;100.00;98853.62;5568679;32;34603;-73
2022/11/18 06:49:50;;;;;;;;;;;;;;;7.03;100.00;98842.53;5569289;32;34676;-73
2022/11/18 06:52:53;;;;;;;;;;;;;;;7.06;100.00;98849.28;5569329;32;34217;-73
2022/11/18 06:56:01;;;;;;;;;;;;;;;7.07;100.00;98849.09;5568576;32;34818;-74
2022/11/18 06:59:04;;;;;;;;;;;;;;;7.09;100.00;98856.81;5569030;32;34855;-73
2022/11/18 07:02:09;;;;;;;;;;;;;;;7.06;100.00;98857.19;5568196;32;34750;-73
2022/11/18 07:05:13;;;;;;;;;;;;;;;6.90;100.00;98858.19;5568998;32;34278;-73
2022/11/18 07:08:17;;;;;;;;;;;;;;;6.88;100.00;98857.53;5567267;32;35157;-75
2022/11/18 07:11:22;;;;;;;;;;;;;;;6.97;100.00;98851.22;5568709;32;34582;-73
2022/11/18 07:14:26;;;;;;;;;;;;;;;7.01;100.00;98849.84;5581533;31;34186;-73
2022/11/18 07:17:30;;;;;;;;;;;;;;;7.09;100.00;98857.66;5588165;31;34839;-74
2022/11/18 07:20:34;;;;;;;;;;;;;;;7.16;100.00;98857.75;5574161;31;33549;-76
2022/11/18 07:23:36;;;;;;;;;;;;;;;7.23;100.00;98858.63;5574628;31;34927;-74
2022/11/18 07:26:40;;;;;;;;;;;;;;;7.33;100.00;98846.81;5588423;31;34652;-73
2022/11/18 07:29:43;;;;;;;;;;;;;;;7.29;100.00;98847.34;5573636;31;35001;-74
2022/11/18 07:32:49;;;;;;;;;;;;;;;7.30;100.00;98843.72;5588423;31;34751;-74
2022/11/18 07:35:54;;;;;;;;;;;;;;;7.36;100.00;98846.41;5561649;31;35000;-74
2022/11/18 07:39:03;;;;;;;;;;;;;;;7.42;100.00;98835.13;5573791;31;34468;-73
2022/11/18 07:42:08;;;;;;;;;;;;;;;7.49;100.00;98837.03;5587795;31;34702;-76
2022/11/18 07:45:11;;;;;;;;;;;;;;;7.53;100.00;98831.22;5588255;31;34319;-74
2022/11/18 07:48:14;;;;;;;;;;;;;;;7.23;100.00;98822.53;5561356;31;35146;-74
2022/11/18 07:51:18;;;;;;;;;;;;;;;7.37;100.00;98816.41;5588454;31;34388;-74
2022/11/18 07:54:22;;;;;;;;;;;;;;;7.56;100.00;98806.25;5590634;31;34677;-74
2022/11/18 07:57:25;;;;;;;;;;;;;;;7.57;100.00;98800.81;5590674;31;34979;-73
2022/11/18 08:00:28;;;;;;;;;;;;;;;7.55;100.00;98802.78;5591032;31;34343;-73
2022/11/18 08:03:32;;;;;;;;;;;;;;;7.62;100.00;98795.78;5590925;31;34885;-72
2022/11/18 08:06:36;;;;;;;;;;;;;;;7.68;100.00;98788.94;5590998;31;34618;-73
2022/11/18 08:09:40;;;;;;;;;;;;;;;7.84;100.00;98783.41;5577166;31;34538;-73
2022/11/18 08:12:43;;;;;;;;;;;;;;;7.69;100.00;98794.03;5590659;31;34442;-74
2022/11/18 08:15:47;;;;;;;;;;;;;;;7.72;100.00;98813.94;5576884;31;32729;-74
2022/11/18 08:18:50;;;;;;;;;;;;;;;7.73;100.00;98826.97;5590915;31;34855;-73
2022/11/18 08:21:54;;;;;;;;;;;;;;;7.69;100.00;98814.34;5590685;31;34968;-74
2022/11/18 08:24:58;;;;;;;;;;;;;;;7.70;100.00;98808.84;5590734;31;34957;-73
2022/11/18 08:28:02;;;;;;;;;;;;;;;7.82;100.00;98825.84;5590348;31;34258;-74
2022/11/18 08:31:11;;;;;;;;;;;;;;;7.76;100.00;98825.75;5576507;31;34635;-73
2022/11/18 08:34:17;;;;;;;;;;;;;;;7.61;100.00;98809.16;5590672;31;34764;-72
2022/11/18 08:37:20;;;;;;;;;;;;;;;7.39;100.00;98809.12;5590735;31;34555;-75
2022/11/18 08:40:25;;;;;;;;;;;;;;;7.48;100.00;98803.75;5590996;31;34211;-74
2022/11/18 08:43:29;;;;;;;;;;;;;;;7.45;100.00;98806.75;5590515;31;35616;-73
2022/11/18 08:46:32;;;;;;;;;;;;;;;7.52;100.00;98795.25;5578702;31;35692;-74
2022/11/18 08:49:36;;;;;;;;;;;;;;;7.37;100.00;98784.75;5578919;31;34242;-73
2022/11/18 08:52:40;;;;;;;;;;;;;;;7.53;100.00;98786.34;5577648;31;34609;-73
2022/11/18 08:55:43;;;;;;;;;;;;;;;7.64;100.00;98782.41;5576671;31;35018;-73
2022/11/18 08:58:46;;;;;;;;;;;;;;;7.67;100.00;98784.66;5590817;31;34253;-73
2022/11/18 09:01:49;;;;;;;;;;;;;;;7.69;100.00;98770.28;5590404;31;34140;-73
2022/11/18 09:04:52;;;;;;;;;;;;;;;7.83;100.00;98776.50;5590857;31;34201;-73
2022/11/18 09:07:54;;;;;;;;;;;;;;;7.73;100.00;98770.72;5576526;31;34154;-73
2022/11/18 09:10:58;;;;;;;;;;;;;;;7.78;100.00;98774.44;5590509;31;34740;-73
2022/11/18 09:14:01;;;;;;;;;;;;;;;7.78;100.00;98771.78;5589842;31;34359;-74
2022/11/18 09:17:25;;;;;;;;;;;;;;;7.63;100.00;98780.75;5590276;31;34328;-75
2022/11/18 09:20:29;;;;;;;;;;;;;;;7.43;100.00;98781.37;5590356;31;34191;-75
2022/11/18 09:23:33;;;;;;;;;;;;;;;7.21;100.00;98778.91;5590261;31;34181;-77
2022/11/18 09:26:37;;;;;;;;;;;;;;;7.34;100.00;98782.50;5576150;31;34915;-76
2022/11/18 09:29:41;;;;;;;;;;;;;;;7.34;100.00;98764.03;5576235;31;35200;-76
2022/11/18 09:32:46;;;;;;;;;;;;;;;7.35;100.00;98764.84;5589979;31;34355;-76
2022/11/18 09:35:50;;;;;;;;;;;;;;;7.27;100.00;98764.94;5576241;31;33414;-76
2022/11/18 09:38:53;;;;;;;;;;;;;;;7.30;100.00;98775.97;5590164;31;34776;-76
2022/11/18 09:41:57;;;;;;;;;;;;;;;7.35;100.00;98757.75;5590167;31;34357;-75
2022/11/18 09:45:14;;;;;;;;;;;;;;;7.26;100.00;98761.47;5575964;31;34715;-75
2022/11/18 09:49:11;;;;;;;;;;;;;;;7.06;100.00;98757.81;5590002;31;34291;-74
2022/11/18 09:51:51;;;;;;;;;;;;;;;6.94;100.00;98757.47;5576132;31;35251;-74
2022/11/18 09:54:55;;;;;;;;;;;;;;;6.92;100.00;98748.91;5590095;31;35000;-74
2022/11/18 09:57:58;;;;;;;;;;;;;;;6.93;100.00;98745.28;5590195;31;34411;-73
2022/11/18 10:01:02;;;;;;;;;;;;;;;6.99;100.00;98741.91;5576256;31;33793;-73
2022/11/18 10:04:10;;;;;;;;;;;;;;;6.96;100.00;98736.22;5576037;31;34304;-75
2022/11/18 10:07:19;;;;;;;;;;;;;;;6.90;100.00;98732.47;5575624;31;34295;-75
2022/11/18 10:10:34;;;;;;;;;;;;;;;6.99;100.00;98715.56;5589805;31;34408;-74
2022/11/18 10:13:53;;;;;;;;;;;;;;;7.06;100.00;98712.19;5589431;31;34693;-75
2022/11/18 10:17:04;;;;;;;;;;;;;;;7.07;100.00;98713.81;5589617;31;35197;-73
2022/11/18 10:20:11;;;;;;;;;;;;;;;6.98;100.00;98713.09;5589556;31;34390;-72
2022/11/18 10:23:23;;;;;;;;;;;;;;;6.94;100.00;98698.66;5575561;31;32860;-72
2022/11/18 10:26:39;;;;;;;;;;;;;;;6.90;100.00;98702.66;5575442;31;34583;-73
2022/11/18 10:29:44;;;;;;;;;;;;;;;7.09;100.00;98696.78;5575409;31;34227;-73
2022/11/18 10:33:00;;;;;;;;;;;;;;;7.04;100.00;98688.63;5588814;31;34864;-73
2022/11/18 10:36:32;;;;;;;;;;;;;;;7.03;100.00;98686.16;5575591;31;32984;-73
2022/11/18 10:39:48;;;;;;;;;;;;;;;7.22;100.00;98691.66;5573529;31;34144;-72
2022/11/18 10:42:52;;;;;;;;;;;;;;;7.25;100.00;98682.56;5575173;31;35017;-74
2022/11/18 10:46:14;;;;;;;;;;;;;;;7.25;100.00;98686.03;5589337;31;34318;-74
2022/11/18 10:49:18;;;;;;;;;;;;;;;7.26;100.00;98682.34;5575113;31;36076;-73
2022/11/18 10:52:23;;;;;;;;;;;;;;;7.26;100.00;98676.28;5589258;31;34763;-73
2022/11/18 10:55:29;;;;;;;;;;;;;;;7.11;100.00;98668.44;5575406;31;34695;-73
2022/11/18 10:58:40;;;;;;;;;;;;;;;6.97;100.00;98672.72;5589069;31;34329;-73
2022/11/18 11:01:56;;;;;;;;;;;;;;;7.13;100.00;98666.41;5588870;31;34176;-73
2022/11/18 11:05:17;;;;;;;;;;;;;;;7.18;100.00;98679.03;5590982;31;34191;-72
2022/11/18 11:08:22;;;;;;;;;;;;;;;7.05;100.00;98685.00;5575736;31;34598;-74
2022/11/18 11:11:55;;;;;;;;;;;;;;;6.96;100.00;98681.66;5574895;31;35342;-72
2022/11/18 11:15:02;;;;;;;;;;;;;;;6.86;100.00;98685.59;5574100;31;35338;-72
2022/11/18 11:21:32;;;;;;;;;;;;;;;6.77;100.00;98687.53;5576482;31;34223;-82
2022/11/18 11:24:37;;;;;;;;;;;;;;;6.78;100.00;98680.41;5575782;31;35184;-77
2022/11/18 11:28:01;;;;;;;;;;;;;;;6.70;100.00;98675.25;5590440;31;35131;-77
2022/11/18 11:31:26;;;;;;;;;;;;;;;6.67;100.00;98687.00;5588425;31;34918;-75
2022/11/18 11:34:54;;;;;;;;;;;;;;;6.61;100.00;98684.25;5590895;31;34906;-76
2022/11/18 11:38:12;;;;;;;;;;;;;;;6.59;100.00;98697.63;5584397;31;34160;-74
2022/11/18 11:41:21;;;;;;;;;;;;;;;6.58;100.00;98696.00;5590947;31;34241;-75
2022/11/18 11:44:37;;;;;;;;;;;;;;;6.61;100.00;98692.16;5591225;31;34788;-75
2022/11/18 11:48:04;;;;;;;;;;;;;;;6.58;100.00;98693.38;5591072;31;34212;-73
2022/11/18 11:51:10;;;;;;;;;;;;;;;6.52;100.00;98702.00;5591174;31;34714;-76
2022/11/18 11:54:22;;;;;;;;;;;;;;;6.49;100.00;98697.91;5590958;31;35099;-73
2022/11/18 11:57:35;;;;;;;;;;;;;;;6.43;100.00;98690.75;5577261;31;32741;-72
2022/11/18 12:00:41;;;;;;;;;;;;;;;6.47;100.00;98702.53;5591040;31;34870;-71
2022/11/18 12:03:45;;;;;;;;;;;;;;;6.31;100.00;98694.00;5577187;31;34537;-71
2022/11/18 12:06:54;;;;;;;;;;;;;;;6.33;100.00;98687.56;5576835;31;34703;-71
2022/11/18 12:10:04;;;;;;;;;;;;;;;6.25;100.00;98686.81;5590820;31;34879;-72
2022/11/18 12:13:26;;;;;;;;;;;;;;;6.26;100.00;98699.00;5576631;31;33199;-70
2022/11/18 12:16:29;;;;;;;;;;;;;;;6.21;100.00;98681.09;5590960;31;34889;-70
2022/11/18 12:19:37;;;;;;;;;;;;;;;6.20;100.00;98676.00;5591178;31;34908;-70
2022/11/18 12:22:59;;;;;;;;;;;;;;;6.20;100.00;98665.47;5564089;31;34908;-70
2022/11/18 12:26:08;;;;;;;;;;;;;;;6.16;100.00;98665.03;5590818;31;34907;-71
2022/11/18 12:29:34;;;;;;;;;;;;;;;6.23;100.00;98675.66;5590535;31;34395;-75
2022/11/18 12:32:41;;;;;;;;;;;;;;;6.18;100.00;98660.41;5590877;31;34796;-71
2022/11/18 12:35:47;;;;;;;;;;;;;;;6.17;100.00;98657.94;5577139;31;33451;-71
2022/11/18 12:38:51;;;;;;;;;;;;;;;6.21;100.00;98646.06;5576509;31;34168;-69
2022/11/18 12:45:35;;;;;;;;;;;;;;;6.15;100.00;98649.44;5590557;31;34335;-69
2022/11/18 12:48:40;;;;;;;;;;;;;;;6.25;100.00;98652.59;5577268;31;34803;-69
2022/11/18 12:51:43;;;;;;;;;;;;;;;6.13;100.00;98646.97;5576831;31;34883;-70
2022/11/18 12:54:47;;;;;;;;;;;;;;;6.25;100.00;98645.50;5590511;31;34623;-71
2022/11/18 12:57:50;;;;;;;;;;;;;;;6.16;100.00;98637.88;5576590;31;33852;-71
2022/11/18 13:01:09;;;;;;;;;;;;;;;6.18;100.00;98651.69;5590567;31;34301;-72
2022/11/18 13:04:15;;;;;;;;;;;;;;;6.17;100.00;98642.16;5590449;31;34175;-72
2022/11/18 13:23:50;;;;;;;;;;;;;;;6.04;100.00;98677.03;5590381;31;34571;-71
2022/11/18 13:24:21;;;;;;;;;;;;;;;5.98;100.00;98681.19;5590152;31;34116;-70
2022/11/18 13:27:33;;;;;;;;;;;;;;;5.96;100.00;98684.97;5576095;31;35074;-71
2022/11/18 13:30:43;;;;;;;;;;;;;;;6.00;100.00;98692.34;5575499;31;33256;-70
2022/11/18 13:33:46;;;;;;;;;;;;;;;5.97;100.00;98695.34;5590128;31;34174;-71
2022/11/18 13:36:51;;;;;;;;;;;;;;;5.95;100.00;98694.72;5590263;31;34259;-71
2022/11/18 13:39:54;;;;;;;;;;;;;;;6.00;100.00;98699.44;5590561;31;34776;-71
2022/11/18 13:42:58;;;;;;;;;;;;;;;5.99;100.00;98701.25;5576290;31;33909;-71
2022/11/18 13:46:09;;;;;;;;;;;;;;;5.98;100.00;98702.25;5576306;31;34295;-70
2022/11/18 13:49:15;;;;;;;;;;;;;;;6.06;100.00;98703.97;5575528;31;34228;-71
2022/11/18 13:52:23;;;;;;;;;;;;;;;5.98;100.00;98699.59;5575549;31;33899;-72
2022/11/18 13:55:27;;;;;;;;;;;;;;;5.90;100.00;98706.78;5576347;31;34337;-71
2022/11/18 13:58:36;;;;;;;;;;;;;;;5.93;100.00;98701.97;5590536;31;34170;-71
2022/11/18 14:02:01;;;;;;;;;;;;;;;5.90;100.00;98701.50;5578636;31;34451;-71
2022/11/18 14:05:16;;;;;;;;;;;;;;;5.90;100.00;98694.44;5576165;31;35432;-71
2022/11/18 14:08:32;;;;;;;;;;;;;;;5.97;100.00;98700.59;5589795;31;34345;-70
2022/11/18 14:11:38;;;;;;;;;;;;;;;5.98;100.00;98691.72;5575674;31;32696;-70
2022/11/18 14:14:43;;;;;;;;;;;;;;;6.01;100.00;98698.41;5575926;31;34708;-71
2022/11/18 14:18:09;;;;;;;;;;;;;;;5.98;100.00;98690.87;5589882;31;34975;-71
2022/11/18 14:21:25;;;;;;;;;;;;;;;5.99;100.00;98692.53;5589340;31;34337;-71
2022/11/18 14:24:29;;;;;;;;;;;;;;;6.01;100.00;98695.78;5589667;31;34175;-71
2022/11/18 14:27:35;;;;;;;;;;;;;;;6.04;100.00;98692.81;5589641;31;34358;-71
2022/11/18 14:30:54;;;;;;;;;;;;;;;6.05;100.00;98699.72;5589548;31;34653;-72
2022/11/18 14:34:18;;;;;;;;;;;;;;;6.14;100.00;98705.72;5589469;31;34529;-70
2022/11/18 14:37:25;;;;;;;;;;;;;;;6.16;100.00;98706.34;5589360;31;34901;-70
2022/11/18 14:40:30;;;;;;;;;;;;;;;6.18;100.00;98705.16;5575379;31;32954;-71
2022/11/18 14:43:36;;;;;;;;;;;;;;;6.20;100.00;98710.22;5589258;31;34860;-72
2022/11/18 14:46:42;;;;;;;;;;;;;;;6.21;100.00;98701.34;5575064;31;33633;-71
2022/11/18 14:49:48;;;;;;;;;;;;;;;6.22;100.00;98698.53;5588792;31;34664;-72
2022/11/18 14:52:53;;;;;;;;;;;;;;;6.14;100.00;98701.28;5574565;31;33520;-72
2022/11/18 14:56:00;;;;;;;;;;;;;;;6.11;100.00;98701.59;5575110;31;33808;-72
2022/11/18 14:59:06;;;;;;;;;;;;;;;6.18;100.00;98701.72;5588876;31;34817;-72
2022/11/18 15:02:14;;;;;;;;;;;;;;;6.12;100.00;98698.81;5588527;31;34610;-72
2022/11/18 15:05:18;;;;;;;;;;;;;;;6.15;100.00;98697.63;5589271;31;35098;-72
2022/11/18 15:08:23;;;;;;;;;;;;;;;6.14;100.00;98689.91;5588752;31;34960;-72
2022/11/18 15:11:27;;;;;;;;;;;;;;;6.14;100.00;98693.38;5574747;31;33598;-72
2022/11/18 15:14:34;;;;;;;;;;;;;;;6.15;100.00;98686.28;5574491;31;34252;-72
2022/11/18 15:17:38;;;;;;;;;;;;;;;6.17;100.00;98681.66;5588789;31;34243;-73
2022/11/18 15:20:42;;;;;;;;;;;;;;;6.33;100.00;98690.19;5574859;31;34816;-73
2022/11/18 15:23:48;;;;;;;;;;;;;;;6.29;100.00;98688.94;5574862;31;34772;-73
2022/11/18 15:26:54;;;;;;;;;;;;;;;6.18;100.00;98686.75;5588618;31;34256;-73
2022/11/18 15:29:59;;;;;;;;;;;;;;;6.13;100.00;98691.72;5561545;31;34449;-73
2022/11/18 15:33:05;;;;;;;;;;;;;;;6.16;100.00;98701.88;5588374;31;34267;-73
2022/11/18 15:36:11;;;;;;;;;;;;;;;6.18;100.00;98705.16;5574555;31;34442;-74
2022/11/18 15:39:19;;;;;;;;;;;;;;;6.18;100.00;98696.44;5588375;31;34120;-74
2022/11/18 15:42:23;;;;;;;;;;;;;;;6.12;100.00;98692.72;5574536;31;34907;-74
2022/11/18 15:45:28;;;;;;;;;;;;;;;6.13;100.00;98702.25;5574502;31;35196;-74
2022/11/18 15:48:33;;;;;;;;;;;;;;;6.13;100.00;98697.00;5574694;31;34298;-75
2022/11/18 15:51:40;;;;;;;;;;;;;;;6.16;100.00;98707.16;5588210;31;34369;-74
2022/11/18 15:54:46;;;;;;;;;;;;;;;6.22;100.00;98706.44;5588148;31;34754;-74
2022/11/18 15:57:57;;;;;;;;;;;;;;;6.24;100.00;98706.25;5574635;31;32911;-74
2022/11/18 16:01:02;;;;;;;;;;;;;;;6.29;100.00;98710.00;5588148;31;34783;-73
2022/11/18 16:04:12;;;;;;;;;;;;;;;6.36;100.00;98713.53;5587449;31;34470;-74
2022/11/18 16:07:20;;;;;;;;;;;;;;;6.36;100.00;98710.06;5573977;31;35084;-74
2022/11/18 16:13:51;;;;;;;;;;;;;;;6.32;100.00;98727.25;5575980;31;34266;-74
2022/11/18 16:16:58;;;;;;;;;;;;;;;6.33;100.00;98720.97;5564558;31;32951;-74
2022/11/18 16:20:05;;;;;;;;;;;;;;;6.32;100.00;98716.72;5577016;31;34639;-73
2022/11/18 16:23:11;;;;;;;;;;;;;;;6.33;100.00;98718.34;5590776;31;34112;-75
2022/11/18 16:26:16;;;;;;;;;;;;;;;6.32;100.00;98719.34;5591069;31;34883;-75
2022/11/18 16:29:22;;;;;;;;;;;;;;;6.36;100.00;98725.88;5590519;31;34868;-76
2022/11/18 16:32:27;;;;;;;;;;;;;;;6.34;100.00;98723.41;5590596;31;34942;-76
2022/11/18 16:35:35;;;;;;;;;;;;;;;6.33;100.00;98724.44;5576031;31;34686;-75
2022/11/18 16:38:41;;;;;;;;;;;;;;;6.32;100.00;98722.78;5590491;31;34530;-75
2022/11/18 16:41:56;;;;;;;;;;;;;;;6.35;100.00;98729.50;5576263;31;34553;-76
2022/11/18 16:45:09;;;;;;;;;;;;;;;6.31;100.00;98722.97;5590615;31;34891;-74
2022/11/18 16:48:17;;;;;;;;;;;;;;;6.40;100.00;98721.88;5590518;31;34859;-74
2022/11/18 16:51:26;;;;;;;;;;;;;;;6.43;100.00;98729.44;5576534;31;34450;-76
2022/11/18 16:54:33;;;;;;;;;;;;;;;6.40;100.00;98732.41;5590404;31;34884;-75
2022/11/18 16:57:41;;;;;;;;;;;;;;;6.39;100.00;98728.16;5576515;31;34976;-74
2022/11/18 17:00:45;;;;;;;;;;;;;;;6.38;100.00;98737.06;5590355;31;34733;-75
2022/11/18 17:04:10;;;;;;;;;;;;;;;6.45;100.00;98732.69;5590537;31;34333;-75